sensor_id;sensor_type;location;lat;lon;timestamp;P1;durP1;ratioP1;P2;durP2;ratioP2
74959;SDS011;63518;49.572;1.106;2022-12-01T00:01:30;13.82;;;4.45;;
74959;SDS011;63518;49.572;1.106;2022-12-01T00:03:57;17.88;;;5.18;;
74959;SDS011;63518;49.572;1.106;2022-12-01T00:06:24;13.73;;;4.30;;
74959;SDS011;63518;49.572;1.106;2022-12-01T00:08:51;15.38;;;4.75;;
74959;SDS011;63518;49.572;1.106;2022-12-01T00:11:44;17.35;;;5.55;;
74959;SDS011;63518;49.572;1.106;2022-12-01T00:14:12;12.85;;;4.40;;
74959;SDS011;63518;49.572;1.106;2022-12-01T00:16:39;10.73;;;3.95;;
74959;SDS011;63518;49.572;1.106;2022-12-01T00:19:09;13.07;;;4.63;;
74959;SDS011;63518;49.572;1.106;2022-12-01T00:21:36;20.30;;;4.63;;
74959;SDS011;63518;49.572;1.106;2022-12-01T00:24:03;11.98;;;4.50;;
74959;SDS011;63518;49.572;1.106;2022-12-01T00:26:30;13.63;;;4.60;;
74959;SDS011;63518;49.572;1.106;2022-12-01T00:28:58;12.98;;;4.70;;
74959;SDS011;63518;49.572;1.106;2022-12-01T00:31:25;12.18;;;4.15;;
74959;SDS011;63518;49.572;1.106;2022-12-01T00:33:53;12.20;;;4.15;;
74959;SDS011;63518;49.572;1.106;2022-12-01T00:36:20;10.25;;;3.55;;
74959;SDS011;63518;49.572;1.106;2022-12-01T00:38:54;13.13;;;4.85;;
74959;SDS011;63518;49.572;1.106;2022-12-01T00:41:23;11.98;;;3.85;;
74959;SDS011;63518;49.572;1.106;2022-12-01T00:43:54;15.23;;;4.32;;
74959;SDS011;63518;49.572;1.106;2022-12-01T00:46:21;12.50;;;4.43;;
74959;SDS011;63518;49.572;1.106;2022-12-01T00:49:05;13.40;;;4.25;;
74959;SDS011;63518;49.572;1.106;2022-12-01T00:51:33;9.93;;;2.60;;
74959;SDS011;63518;49.572;1.106;2022-12-01T00:54:01;12.52;;;3.88;;
74959;SDS011;63518;49.572;1.106;2022-12-01T00:56:33;8.95;;;3.17;;
74959;SDS011;63518;49.572;1.106;2022-12-01T00:59:01;12.30;;;4.07;;
74959;SDS011;63518;49.572;1.106;2022-12-01T01:01:31;11.00;;;3.58;;
74959;SDS011;63518;49.572;1.106;2022-12-01T01:03:59;8.05;;;3.00;;
74959;SDS011;63518;49.572;1.106;2022-12-01T01:06:27;8.57;;;3.13;;
74959;SDS011;63518;49.572;1.106;2022-12-01T01:11:25;13.45;;;3.28;;
74959;SDS011;63518;49.572;1.106;2022-12-01T01:14:02;7.82;;;2.80;;
74959;SDS011;63518;49.572;1.106;2022-12-01T01:16:34;10.00;;;3.03;;
74959;SDS011;63518;49.572;1.106;2022-12-01T01:19:03;8.18;;;2.63;;
74959;SDS011;63518;49.572;1.106;2022-12-01T01:21:30;9.40;;;3.08;;
74959;SDS011;63518;49.572;1.106;2022-12-01T01:24:00;7.72;;;2.17;;
74959;SDS011;63518;49.572;1.106;2022-12-01T01:26:29;13.63;;;2.80;;
74959;SDS011;63518;49.572;1.106;2022-12-01T01:28:58;8.75;;;2.25;;
74959;SDS011;63518;49.572;1.106;2022-12-01T01:31:29;13.43;;;2.92;;
74959;SDS011;63518;49.572;1.106;2022-12-01T01:33:58;9.07;;;2.97;;
74959;SDS011;63518;49.572;1.106;2022-12-01T01:36:28;8.80;;;2.67;;
74959;SDS011;63518;49.572;1.106;2022-12-01T01:38:55;9.65;;;2.92;;
74959;SDS011;63518;49.572;1.106;2022-12-01T01:41:23;11.55;;;3.40;;
74959;SDS011;63518;49.572;1.106;2022-12-01T01:43:59;9.13;;;2.58;;
74959;SDS011;63518;49.572;1.106;2022-12-01T01:46:32;14.77;;;2.92;;
74959;SDS011;63518;49.572;1.106;2022-12-01T01:51:36;12.73;;;3.15;;
74959;SDS011;63518;49.572;1.106;2022-12-01T01:54:08;6.85;;;2.08;;
74959;SDS011;63518;49.572;1.106;2022-12-01T01:56:42;14.10;;;3.08;;
74959;SDS011;63518;49.572;1.106;2022-12-01T01:59:11;7.35;;;2.08;;
74959;SDS011;63518;49.572;1.106;2022-12-01T02:01:43;7.53;;;2.20;;
74959;SDS011;63518;49.572;1.106;2022-12-01T02:04:14;14.15;;;2.78;;
74959;SDS011;63518;49.572;1.106;2022-12-01T02:06:42;7.05;;;2.42;;
74959;SDS011;63518;49.572;1.106;2022-12-01T02:09:10;8.77;;;2.47;;
74959;SDS011;63518;49.572;1.106;2022-12-01T02:14:22;12.27;;;2.40;;
74959;SDS011;63518;49.572;1.106;2022-12-01T02:17:21;14.98;;;2.60;;
74959;SDS011;63518;49.572;1.106;2022-12-01T02:26:38;15.80;;;3.75;;
74959;SDS011;63518;49.572;1.106;2022-12-01T02:32:22;11.07;;;2.30;;
74959;SDS011;63518;49.572;1.106;2022-12-01T02:35:01;7.80;;;1.90;;
74959;SDS011;63518;49.572;1.106;2022-12-01T02:40:21;9.18;;;2.17;;
74959;SDS011;63518;49.572;1.106;2022-12-01T02:45:55;6.47;;;2.00;;
74959;SDS011;63518;49.572;1.106;2022-12-01T02:48:43;7.20;;;1.92;;
74959;SDS011;63518;49.572;1.106;2022-12-01T02:51:19;9.57;;;2.50;;
74959;SDS011;63518;49.572;1.106;2022-12-01T02:54:01;9.32;;;1.98;;
74959;SDS011;63518;49.572;1.106;2022-12-01T02:56:32;6.93;;;2.08;;
74959;SDS011;63518;49.572;1.106;2022-12-01T02:59:09;7.53;;;2.17;;
74959;SDS011;63518;49.572;1.106;2022-12-01T03:01:50;7.28;;;2.22;;
74959;SDS011;63518;49.572;1.106;2022-12-01T03:04:48;5.30;;;1.75;;
74959;SDS011;63518;49.572;1.106;2022-12-01T03:10:16;9.80;;;3.38;;
74959;SDS011;63518;49.572;1.106;2022-12-01T03:15:57;12.05;;;3.17;;
74959;SDS011;63518;49.572;1.106;2022-12-01T03:23:54;12.25;;;4.57;;
74959;SDS011;63518;49.572;1.106;2022-12-01T03:26:30;8.77;;;2.85;;
74959;SDS011;63518;49.572;1.106;2022-12-01T03:29:02;15.77;;;4.32;;
74959;SDS011;63518;49.572;1.106;2022-12-01T03:31:40;11.63;;;3.72;;
74959;SDS011;63518;49.572;1.106;2022-12-01T03:34:12;17.02;;;3.85;;
74959;SDS011;63518;49.572;1.106;2022-12-01T03:36:44;16.17;;;4.82;;
74959;SDS011;63518;49.572;1.106;2022-12-01T03:39:18;15.02;;;3.55;;
74959;SDS011;63518;49.572;1.106;2022-12-01T03:42:09;19.17;;;4.05;;
74959;SDS011;63518;49.572;1.106;2022-12-01T03:44:47;12.63;;;3.80;;
74959;SDS011;63518;49.572;1.106;2022-12-01T03:47:20;33.63;;;5.88;;
74959;SDS011;63518;49.572;1.106;2022-12-01T03:49:53;11.50;;;3.45;;
74959;SDS011;63518;49.572;1.106;2022-12-01T04:00:32;14.65;;;3.47;;
74959;SDS011;63518;49.572;1.106;2022-12-01T04:03:01;12.73;;;3.05;;
74959;SDS011;63518;49.572;1.106;2022-12-01T04:05:31;8.48;;;2.75;;
74959;SDS011;63518;49.572;1.106;2022-12-01T04:08:00;18.05;;;4.05;;
74959;SDS011;63518;49.572;1.106;2022-12-01T04:10:30;10.43;;;3.15;;
74959;SDS011;63518;49.572;1.106;2022-12-01T04:13:04;10.57;;;3.35;;
74959;SDS011;63518;49.572;1.106;2022-12-01T04:15:33;12.07;;;3.47;;
74959;SDS011;63518;49.572;1.106;2022-12-01T04:18:01;19.50;;;4.15;;
74959;SDS011;63518;49.572;1.106;2022-12-01T04:20:33;13.40;;;3.10;;
74959;SDS011;63518;49.572;1.106;2022-12-01T04:25:27;9.13;;;3.20;;
74959;SDS011;63518;49.572;1.106;2022-12-01T04:27:59;8.15;;;2.55;;
74959;SDS011;63518;49.572;1.106;2022-12-01T04:30:27;14.55;;;3.47;;
74959;SDS011;63518;49.572;1.106;2022-12-01T04:32:54;15.63;;;4.15;;
74959;SDS011;63518;49.572;1.106;2022-12-01T04:35:23;14.82;;;2.83;;
74959;SDS011;63518;49.572;1.106;2022-12-01T04:37:53;16.30;;;3.78;;
74959;SDS011;63518;49.572;1.106;2022-12-01T04:40:23;11.93;;;4.25;;
74959;SDS011;63518;49.572;1.106;2022-12-01T04:43:04;10.40;;;2.42;;
74959;SDS011;63518;49.572;1.106;2022-12-01T04:45:31;12.38;;;3.88;;
74959;SDS011;63518;49.572;1.106;2022-12-01T04:47:59;16.00;;;4.70;;
74959;SDS011;63518;49.572;1.106;2022-12-01T04:50:26;11.32;;;4.50;;
74959;SDS011;63518;49.572;1.106;2022-12-01T04:52:53;23.55;;;5.20;;
74959;SDS011;63518;49.572;1.106;2022-12-01T05:45:43;21.33;;;6.65;;
74959;SDS011;63518;49.572;1.106;2022-12-01T05:48:16;16.30;;;5.80;;
74959;SDS011;63518;49.572;1.106;2022-12-01T05:50:43;15.68;;;4.72;;
74959;SDS011;63518;49.572;1.106;2022-12-01T05:53:14;22.25;;;6.53;;
74959;SDS011;63518;49.572;1.106;2022-12-01T05:55:41;22.38;;;5.80;;
74959;SDS011;63518;49.572;1.106;2022-12-01T05:58:08;15.75;;;5.22;;
74959;SDS011;63518;49.572;1.106;2022-12-01T06:00:36;17.42;;;6.30;;
74959;SDS011;63518;49.572;1.106;2022-12-01T06:03:14;16.75;;;5.15;;
74959;SDS011;63518;49.572;1.106;2022-12-01T06:05:42;18.80;;;6.07;;
74959;SDS011;63518;49.572;1.106;2022-12-01T06:08:12;18.05;;;6.10;;
74959;SDS011;63518;49.572;1.106;2022-12-01T06:10:41;18.83;;;5.90;;
74959;SDS011;63518;49.572;1.106;2022-12-01T06:13:09;22.40;;;5.70;;
74959;SDS011;63518;49.572;1.106;2022-12-01T06:15:36;20.52;;;6.28;;
74959;SDS011;63518;49.572;1.106;2022-12-01T06:18:06;17.30;;;4.95;;
74959;SDS011;63518;49.572;1.106;2022-12-01T06:20:34;17.75;;;6.03;;
74959;SDS011;63518;49.572;1.106;2022-12-01T06:23:03;20.02;;;6.95;;
74959;SDS011;63518;49.572;1.106;2022-12-01T06:25:31;20.48;;;6.30;;
74959;SDS011;63518;49.572;1.106;2022-12-01T06:27:58;23.55;;;6.28;;
74959;SDS011;63518;49.572;1.106;2022-12-01T06:30:28;18.90;;;6.40;;
74959;SDS011;63518;49.572;1.106;2022-12-01T06:32:55;15.60;;;5.38;;
74959;SDS011;63518;49.572;1.106;2022-12-01T06:35:22;14.98;;;5.05;;
74959;SDS011;63518;49.572;1.106;2022-12-01T06:37:51;17.55;;;5.38;;
74959;SDS011;63518;49.572;1.106;2022-12-01T06:40:20;15.32;;;4.47;;
74959;SDS011;63518;49.572;1.106;2022-12-01T06:42:49;18.05;;;6.53;;
74959;SDS011;63518;49.572;1.106;2022-12-01T06:45:16;19.02;;;5.63;;
74959;SDS011;63518;49.572;1.106;2022-12-01T06:47:51;24.30;;;6.82;;
74959;SDS011;63518;49.572;1.106;2022-12-01T06:50:19;18.00;;;5.78;;
74959;SDS011;63518;49.572;1.106;2022-12-01T06:55:18;24.73;;;6.85;;
74959;SDS011;63518;49.572;1.106;2022-12-01T06:57:51;18.65;;;7.15;;
74959;SDS011;63518;49.572;1.106;2022-12-01T07:00:20;23.33;;;7.38;;
74959;SDS011;63518;49.572;1.106;2022-12-01T07:02:48;21.70;;;7.05;;
74959;SDS011;63518;49.572;1.106;2022-12-01T07:05:15;20.70;;;6.35;;
74959;SDS011;63518;49.572;1.106;2022-12-01T07:07:53;21.95;;;6.13;;
74959;SDS011;63518;49.572;1.106;2022-12-01T07:10:32;20.55;;;5.82;;
74959;SDS011;63518;49.572;1.106;2022-12-01T07:13:02;19.08;;;5.22;;
74959;SDS011;63518;49.572;1.106;2022-12-01T07:15:30;19.55;;;7.80;;
74959;SDS011;63518;49.572;1.106;2022-12-01T07:17:58;20.50;;;6.38;;
74959;SDS011;63518;49.572;1.106;2022-12-01T07:20:26;20.98;;;6.90;;
74959;SDS011;63518;49.572;1.106;2022-12-01T07:22:53;21.02;;;7.18;;
74959;SDS011;63518;49.572;1.106;2022-12-01T07:25:20;17.75;;;6.63;;
74959;SDS011;63518;49.572;1.106;2022-12-01T07:27:48;19.67;;;7.25;;
74959;SDS011;63518;49.572;1.106;2022-12-01T07:30:18;25.38;;;7.18;;
74959;SDS011;63518;49.572;1.106;2022-12-01T07:32:52;23.95;;;7.88;;
74959;SDS011;63518;49.572;1.106;2022-12-01T07:35:23;26.77;;;8.05;;
74959;SDS011;63518;49.572;1.106;2022-12-01T07:37:53;25.17;;;7.63;;
74959;SDS011;63518;49.572;1.106;2022-12-01T07:40:21;23.13;;;6.25;;
74959;SDS011;63518;49.572;1.106;2022-12-01T07:42:51;27.00;;;8.55;;
74959;SDS011;63518;49.572;1.106;2022-12-01T07:45:28;25.67;;;8.50;;
74959;SDS011;63518;49.572;1.106;2022-12-01T07:47:56;33.33;;;9.98;;
74959;SDS011;63518;49.572;1.106;2022-12-01T07:50:23;31.67;;;9.82;;
74959;SDS011;63518;49.572;1.106;2022-12-01T07:52:51;25.63;;;7.57;;
74959;SDS011;63518;49.572;1.106;2022-12-01T07:55:21;31.70;;;8.77;;
74959;SDS011;63518;49.572;1.106;2022-12-01T07:57:49;27.42;;;8.85;;
74959;SDS011;63518;49.572;1.106;2022-12-01T08:00:25;32.78;;;9.60;;
74959;SDS011;63518;49.572;1.106;2022-12-01T08:02:53;24.08;;;7.55;;
74959;SDS011;63518;49.572;1.106;2022-12-01T08:05:22;26.42;;;7.75;;
74959;SDS011;63518;49.572;1.106;2022-12-01T08:07:49;31.88;;;8.40;;
74959;SDS011;63518;49.572;1.106;2022-12-01T08:10:19;30.25;;;8.88;;
74959;SDS011;63518;49.572;1.106;2022-12-01T08:12:46;32.38;;;10.40;;
74959;SDS011;63518;49.572;1.106;2022-12-01T08:15:14;34.97;;;7.95;;
74959;SDS011;63518;49.572;1.106;2022-12-01T08:17:42;29.90;;;10.10;;
74959;SDS011;63518;49.572;1.106;2022-12-01T08:20:09;38.20;;;10.43;;
74959;SDS011;63518;49.572;1.106;2022-12-01T08:22:50;30.85;;;8.73;;
74959;SDS011;63518;49.572;1.106;2022-12-01T08:25:19;31.02;;;9.23;;
74959;SDS011;63518;49.572;1.106;2022-12-01T08:27:47;29.85;;;8.23;;
74959;SDS011;63518;49.572;1.106;2022-12-01T08:30:14;29.38;;;7.82;;
74959;SDS011;63518;49.572;1.106;2022-12-01T08:32:42;24.02;;;7.30;;
74959;SDS011;63518;49.572;1.106;2022-12-01T08:35:09;28.65;;;7.53;;
74959;SDS011;63518;49.572;1.106;2022-12-01T08:37:37;29.15;;;8.77;;
74959;SDS011;63518;49.572;1.106;2022-12-01T08:40:04;36.35;;;9.20;;
74959;SDS011;63518;49.572;1.106;2022-12-01T08:42:32;26.30;;;7.90;;
74959;SDS011;63518;49.572;1.106;2022-12-01T08:44:59;26.80;;;8.52;;
74959;SDS011;63518;49.572;1.106;2022-12-01T08:47:30;28.58;;;7.43;;
74959;SDS011;63518;49.572;1.106;2022-12-01T08:49:57;24.73;;;7.90;;
74959;SDS011;63518;49.572;1.106;2022-12-01T08:52:24;28.70;;;8.77;;
74959;SDS011;63518;49.572;1.106;2022-12-01T08:54:53;31.63;;;8.90;;
74959;SDS011;63518;49.572;1.106;2022-12-01T08:57:21;34.88;;;9.35;;
74959;SDS011;63518;49.572;1.106;2022-12-01T08:59:51;21.55;;;7.30;;
74959;SDS011;63518;49.572;1.106;2022-12-01T09:02:22;30.38;;;9.68;;
74959;SDS011;63518;49.572;1.106;2022-12-01T09:04:52;27.95;;;8.68;;
74959;SDS011;63518;49.572;1.106;2022-12-01T09:07:19;25.20;;;7.18;;
74959;SDS011;63518;49.572;1.106;2022-12-01T09:09:52;22.92;;;6.80;;
74959;SDS011;63518;49.572;1.106;2022-12-01T09:12:22;23.50;;;7.45;;
74959;SDS011;63518;49.572;1.106;2022-12-01T09:14:54;26.40;;;8.85;;
74959;SDS011;63518;49.572;1.106;2022-12-01T09:17:25;27.27;;;9.07;;
74959;SDS011;63518;49.572;1.106;2022-12-01T09:19:53;23.25;;;7.53;;
74959;SDS011;63518;49.572;1.106;2022-12-01T09:22:21;19.65;;;5.80;;
74959;SDS011;63518;49.572;1.106;2022-12-01T09:24:52;29.02;;;7.82;;
74959;SDS011;63518;49.572;1.106;2022-12-01T09:27:19;22.17;;;7.47;;
74959;SDS011;63518;49.572;1.106;2022-12-01T09:29:47;27.88;;;9.15;;
74959;SDS011;63518;49.572;1.106;2022-12-01T09:32:15;26.00;;;7.28;;
74959;SDS011;63518;49.572;1.106;2022-12-01T09:34:46;33.17;;;10.48;;
74959;SDS011;63518;49.572;1.106;2022-12-01T09:37:13;39.88;;;13.15;;
74959;SDS011;63518;49.572;1.106;2022-12-01T09:39:40;24.52;;;8.13;;
74959;SDS011;63518;49.572;1.106;2022-12-01T09:42:10;33.83;;;8.70;;
74959;SDS011;63518;49.572;1.106;2022-12-01T09:44:48;26.05;;;8.02;;
74959;SDS011;63518;49.572;1.106;2022-12-01T09:47:20;25.80;;;8.52;;
74959;SDS011;63518;49.572;1.106;2022-12-01T09:49:58;24.00;;;6.50;;
74959;SDS011;63518;49.572;1.106;2022-12-01T09:52:32;25.45;;;9.82;;
74959;SDS011;63518;49.572;1.106;2022-12-01T09:57:40;25.92;;;7.63;;
74959;SDS011;63518;49.572;1.106;2022-12-01T10:00:19;25.35;;;6.88;;
74959;SDS011;63518;49.572;1.106;2022-12-01T10:05:47;16.85;;;5.95;;
74959;SDS011;63518;49.572;1.106;2022-12-01T10:08:49;19.67;;;7.22;;
74959;SDS011;63518;49.572;1.106;2022-12-01T10:11:27;20.75;;;7.15;;
74959;SDS011;63518;49.572;1.106;2022-12-01T10:14:05;21.25;;;6.78;;
74959;SDS011;63518;49.572;1.106;2022-12-01T10:19:57;22.05;;;7.85;;
74959;SDS011;63518;49.572;1.106;2022-12-01T10:25:22;21.27;;;7.00;;
74959;SDS011;63518;49.572;1.106;2022-12-01T10:30:39;18.92;;;7.22;;
74959;SDS011;63518;49.572;1.106;2022-12-01T10:33:29;22.20;;;7.20;;
74959;SDS011;63518;49.572;1.106;2022-12-01T10:36:01;19.27;;;7.10;;
74959;SDS011;63518;49.572;1.106;2022-12-01T10:38:35;21.58;;;6.35;;
74959;SDS011;63518;49.572;1.106;2022-12-01T10:41:05;22.67;;;6.55;;
74959;SDS011;63518;49.572;1.106;2022-12-01T10:43:38;19.90;;;7.22;;
74959;SDS011;63518;49.572;1.106;2022-12-01T10:46:15;26.10;;;8.00;;
74959;SDS011;63518;49.572;1.106;2022-12-01T10:48:51;21.88;;;6.78;;
74959;SDS011;63518;49.572;1.106;2022-12-01T10:51:23;21.42;;;7.22;;
74959;SDS011;63518;49.572;1.106;2022-12-01T10:53:58;19.17;;;7.00;;
74959;SDS011;63518;49.572;1.106;2022-12-01T10:56:32;22.27;;;7.60;;
74959;SDS011;63518;49.572;1.106;2022-12-01T11:01:57;20.38;;;6.63;;
74959;SDS011;63518;49.572;1.106;2022-12-01T11:04:42;21.50;;;7.78;;
74959;SDS011;63518;49.572;1.106;2022-12-01T11:07:26;20.08;;;6.97;;
74959;SDS011;63518;49.572;1.106;2022-12-01T11:10:19;22.88;;;8.18;;
74959;SDS011;63518;49.572;1.106;2022-12-01T11:12:52;24.80;;;9.32;;
74959;SDS011;63518;49.572;1.106;2022-12-01T11:15:26;25.73;;;6.75;;
74959;SDS011;63518;49.572;1.106;2022-12-01T11:18:18;21.13;;;7.55;;
74959;SDS011;63518;49.572;1.106;2022-12-01T11:21:14;20.17;;;6.65;;
74959;SDS011;63518;49.572;1.106;2022-12-01T11:23:53;18.02;;;6.28;;
74959;SDS011;63518;49.572;1.106;2022-12-01T11:28:54;22.90;;;8.70;;
74959;SDS011;63518;49.572;1.106;2022-12-01T11:31:43;20.98;;;7.82;;
74959;SDS011;63518;49.572;1.106;2022-12-01T11:34:16;21.33;;;5.95;;
74959;SDS011;63518;49.572;1.106;2022-12-01T11:36:50;16.45;;;6.10;;
74959;SDS011;63518;49.572;1.106;2022-12-01T11:39:28;18.60;;;6.18;;
74959;SDS011;63518;49.572;1.106;2022-12-01T11:41:58;20.55;;;6.60;;
74959;SDS011;63518;49.572;1.106;2022-12-01T11:44:31;20.30;;;6.35;;
74959;SDS011;63518;49.572;1.106;2022-12-01T11:47:21;17.08;;;6.10;;
74959;SDS011;63518;49.572;1.106;2022-12-01T11:49:56;17.75;;;6.40;;
74959;SDS011;63518;49.572;1.106;2022-12-01T11:57:40;16.23;;;5.35;;
74959;SDS011;63518;49.572;1.106;2022-12-01T12:02:52;18.17;;;6.20;;
74959;SDS011;63518;49.572;1.106;2022-12-01T12:14:19;24.42;;;8.38;;
74959;SDS011;63518;49.572;1.106;2022-12-01T12:25:30;17.52;;;6.82;;
74959;SDS011;63518;49.572;1.106;2022-12-01T12:28:31;19.80;;;6.25;;
74959;SDS011;63518;49.572;1.106;2022-12-01T12:37:06;15.57;;;5.18;;
74959;SDS011;63518;49.572;1.106;2022-12-01T12:42:41;21.27;;;6.53;;
74959;SDS011;63518;49.572;1.106;2022-12-01T12:53:34;18.45;;;6.53;;
74959;SDS011;63518;49.572;1.106;2022-12-01T12:56:16;22.58;;;8.73;;
74959;SDS011;63518;49.572;1.106;2022-12-01T12:58:54;17.83;;;6.25;;
74959;SDS011;63518;49.572;1.106;2022-12-01T13:01:38;17.85;;;7.47;;
74959;SDS011;63518;49.572;1.106;2022-12-01T13:04:20;22.05;;;8.10;;
74959;SDS011;63518;49.572;1.106;2022-12-01T13:06:55;19.45;;;6.03;;
74959;SDS011;63518;49.572;1.106;2022-12-01T13:09:54;19.45;;;7.57;;
74959;SDS011;63518;49.572;1.106;2022-12-01T13:15:00;20.17;;;6.95;;
74959;SDS011;63518;49.572;1.106;2022-12-01T13:17:40;19.73;;;6.28;;
74959;SDS011;63518;49.572;1.106;2022-12-01T13:20:13;21.55;;;6.82;;
74959;SDS011;63518;49.572;1.106;2022-12-01T13:22:44;16.88;;;5.70;;
74959;SDS011;63518;49.572;1.106;2022-12-01T13:25:14;16.88;;;6.78;;
74959;SDS011;63518;49.572;1.106;2022-12-01T13:27:44;18.08;;;6.10;;
74959;SDS011;63518;49.572;1.106;2022-12-01T13:30:18;18.30;;;6.38;;
74959;SDS011;63518;49.572;1.106;2022-12-01T13:32:48;15.90;;;4.63;;
74959;SDS011;63518;49.572;1.106;2022-12-01T13:35:30;15.15;;;6.32;;
74959;SDS011;63518;49.572;1.106;2022-12-01T13:40:46;11.57;;;4.30;;
74959;SDS011;63518;49.572;1.106;2022-12-01T13:43:20;11.35;;;3.78;;
74959;SDS011;63518;49.572;1.106;2022-12-01T13:45:52;15.38;;;6.22;;
74959;SDS011;63518;49.572;1.106;2022-12-01T13:51:05;14.93;;;6.15;;
74959;SDS011;63518;49.572;1.106;2022-12-01T13:53:35;11.77;;;4.45;;
74959;SDS011;63518;49.572;1.106;2022-12-01T13:58:45;13.32;;;5.45;;
74959;SDS011;63518;49.572;1.106;2022-12-01T14:11:57;11.88;;;5.00;;
74959;SDS011;63518;49.572;1.106;2022-12-01T14:14:35;8.13;;;3.42;;
74959;SDS011;63518;49.572;1.106;2022-12-01T14:17:06;10.30;;;3.58;;
74959;SDS011;63518;49.572;1.106;2022-12-01T14:19:54;11.10;;;4.50;;
74959;SDS011;63518;49.572;1.106;2022-12-01T14:22:40;12.23;;;4.95;;
74959;SDS011;63518;49.572;1.106;2022-12-01T14:25:21;14.32;;;4.35;;
74959;SDS011;63518;49.572;1.106;2022-12-01T14:28:00;12.07;;;4.68;;
74959;SDS011;63518;49.572;1.106;2022-12-01T14:39:31;9.15;;;3.47;;
74959;SDS011;63518;49.572;1.106;2022-12-01T14:42:05;11.43;;;4.07;;
74959;SDS011;63518;49.572;1.106;2022-12-01T14:45:12;12.55;;;4.68;;
74959;SDS011;63518;49.572;1.106;2022-12-01T14:50:45;10.38;;;3.38;;
74959;SDS011;63518;49.572;1.106;2022-12-01T14:55:55;11.25;;;3.53;;
74959;SDS011;63518;49.572;1.106;2022-12-01T14:58:30;12.27;;;3.90;;
74959;SDS011;63518;49.572;1.106;2022-12-01T15:01:08;11.05;;;4.05;;
74959;SDS011;63518;49.572;1.106;2022-12-01T15:03:46;10.20;;;3.35;;
74959;SDS011;63518;49.572;1.106;2022-12-01T15:06:17;10.82;;;3.55;;
74959;SDS011;63518;49.572;1.106;2022-12-01T15:12:04;10.05;;;3.75;;
74959;SDS011;63518;49.572;1.106;2022-12-01T15:14:38;10.77;;;3.58;;
74959;SDS011;63518;49.572;1.106;2022-12-01T15:20:02;9.07;;;3.72;;
74959;SDS011;63518;49.572;1.106;2022-12-01T15:22:34;10.65;;;4.30;;
74959;SDS011;63518;49.572;1.106;2022-12-01T15:25:10;11.25;;;4.50;;
74959;SDS011;63518;49.572;1.106;2022-12-01T15:27:44;10.10;;;3.92;;
74959;SDS011;63518;49.572;1.106;2022-12-01T15:30:14;12.85;;;4.50;;
74959;SDS011;63518;49.572;1.106;2022-12-01T15:32:45;15.60;;;5.43;;
74959;SDS011;63518;49.572;1.106;2022-12-01T15:35:17;14.95;;;4.93;;
74959;SDS011;63518;49.572;1.106;2022-12-01T15:37:49;11.05;;;4.13;;
74959;SDS011;63518;49.572;1.106;2022-12-01T15:40:19;18.58;;;6.90;;
74959;SDS011;63518;49.572;1.106;2022-12-01T15:43:13;12.82;;;5.25;;
74959;SDS011;63518;49.572;1.106;2022-12-01T15:45:47;14.82;;;5.32;;
74959;SDS011;63518;49.572;1.106;2022-12-01T15:51:01;14.27;;;4.30;;
74959;SDS011;63518;49.572;1.106;2022-12-01T15:53:36;13.40;;;4.65;;
74959;SDS011;63518;49.572;1.106;2022-12-01T15:56:06;12.05;;;4.43;;
74959;SDS011;63518;49.572;1.106;2022-12-01T15:58:39;10.20;;;3.78;;
74959;SDS011;63518;49.572;1.106;2022-12-01T16:01:10;12.63;;;3.92;;
74959;SDS011;63518;49.572;1.106;2022-12-01T16:06:26;12.77;;;3.88;;
74959;SDS011;63518;49.572;1.106;2022-12-01T16:09:03;10.68;;;3.83;;
74959;SDS011;63518;49.572;1.106;2022-12-01T16:11:33;10.63;;;3.60;;
74959;SDS011;63518;49.572;1.106;2022-12-01T16:14:02;9.10;;;3.80;;
74959;SDS011;63518;49.572;1.106;2022-12-01T16:16:38;11.60;;;3.97;;
74959;SDS011;63518;49.572;1.106;2022-12-01T16:21:45;16.27;;;6.53;;
74959;SDS011;63518;49.572;1.106;2022-12-01T16:26:48;11.93;;;4.88;;
74959;SDS011;63518;49.572;1.106;2022-12-01T16:29:22;15.15;;;5.60;;
74959;SDS011;63518;49.572;1.106;2022-12-01T16:31:53;12.18;;;4.90;;
74959;SDS011;63518;49.572;1.106;2022-12-01T16:34:45;17.23;;;6.90;;
74959;SDS011;63518;49.572;1.106;2022-12-01T16:39:40;13.43;;;5.35;;
74959;SDS011;63518;49.572;1.106;2022-12-01T16:42:15;15.77;;;5.30;;
74959;SDS011;63518;49.572;1.106;2022-12-01T16:44:51;14.35;;;6.28;;
74959;SDS011;63518;49.572;1.106;2022-12-01T16:47:20;14.15;;;4.35;;
74959;SDS011;63518;49.572;1.106;2022-12-01T16:49:50;11.10;;;4.07;;
74959;SDS011;63518;49.572;1.106;2022-12-01T16:52:18;11.77;;;4.22;;
74959;SDS011;63518;49.572;1.106;2022-12-01T16:55:54;10.27;;;4.13;;
74959;SDS011;63518;49.572;1.106;2022-12-01T16:58:03;12.48;;;4.28;;
74959;SDS011;63518;49.572;1.106;2022-12-01T17:00:31;10.65;;;3.70;;
74959;SDS011;63518;49.572;1.106;2022-12-01T17:05:30;10.27;;;3.67;;
74959;SDS011;63518;49.572;1.106;2022-12-01T17:07:57;14.57;;;4.30;;
74959;SDS011;63518;49.572;1.106;2022-12-01T17:10:25;14.57;;;4.68;;
74959;SDS011;63518;49.572;1.106;2022-12-01T17:12:55;15.43;;;6.40;;
74959;SDS011;63518;49.572;1.106;2022-12-01T17:15:23;19.92;;;7.43;;
74959;SDS011;63518;49.572;1.106;2022-12-01T17:17:53;19.27;;;6.93;;
74959;SDS011;63518;49.572;1.106;2022-12-01T17:20:21;15.30;;;6.18;;
74959;SDS011;63518;49.572;1.106;2022-12-01T17:22:48;14.90;;;5.82;;
74959;SDS011;63518;49.572;1.106;2022-12-01T17:25:15;20.25;;;7.55;;
74959;SDS011;63518;49.572;1.106;2022-12-01T17:27:43;16.88;;;6.93;;
74959;SDS011;63518;49.572;1.106;2022-12-01T17:30:11;20.98;;;7.18;;
74959;SDS011;63518;49.572;1.106;2022-12-01T17:32:42;17.75;;;6.75;;
74959;SDS011;63518;49.572;1.106;2022-12-01T17:35:12;17.98;;;7.00;;
74959;SDS011;63518;49.572;1.106;2022-12-01T17:37:39;19.48;;;7.22;;
74959;SDS011;63518;49.572;1.106;2022-12-01T17:40:07;18.33;;;7.50;;
74959;SDS011;63518;49.572;1.106;2022-12-01T17:45:07;16.23;;;5.90;;
74959;SDS011;63518;49.572;1.106;2022-12-01T17:47:38;22.10;;;7.22;;
74959;SDS011;63518;49.572;1.106;2022-12-01T17:50:08;16.35;;;6.55;;
74959;SDS011;63518;49.572;1.106;2022-12-01T17:52:39;24.02;;;7.95;;
74959;SDS011;63518;49.572;1.106;2022-12-01T17:55:11;22.42;;;7.70;;
74959;SDS011;63518;49.572;1.106;2022-12-01T17:57:39;21.55;;;6.97;;
74959;SDS011;63518;49.572;1.106;2022-12-01T18:00:06;20.90;;;8.52;;
74959;SDS011;63518;49.572;1.106;2022-12-01T18:02:53;17.63;;;6.60;;
74959;SDS011;63518;49.572;1.106;2022-12-01T18:05:20;17.08;;;6.10;;
74959;SDS011;63518;49.572;1.106;2022-12-01T18:07:55;22.40;;;7.88;;
74959;SDS011;63518;49.572;1.106;2022-12-01T18:10:22;21.65;;;8.90;;
74959;SDS011;63518;49.572;1.106;2022-12-01T18:12:52;23.20;;;8.65;;
74959;SDS011;63518;49.572;1.106;2022-12-01T18:15:22;19.75;;;6.80;;
74959;SDS011;63518;49.572;1.106;2022-12-01T18:18:00;18.70;;;6.68;;
74959;SDS011;63518;49.572;1.106;2022-12-01T18:20:29;19.77;;;6.85;;
74959;SDS011;63518;49.572;1.106;2022-12-01T18:22:56;20.60;;;7.95;;
74959;SDS011;63518;49.572;1.106;2022-12-01T18:25:23;21.85;;;7.35;;
74959;SDS011;63518;49.572;1.106;2022-12-01T18:27:51;23.88;;;8.00;;
74959;SDS011;63518;49.572;1.106;2022-12-01T18:30:24;23.48;;;7.80;;
74959;SDS011;63518;49.572;1.106;2022-12-01T18:32:52;21.77;;;8.00;;
74959;SDS011;63518;49.572;1.106;2022-12-01T18:35:20;21.05;;;8.27;;
74959;SDS011;63518;49.572;1.106;2022-12-01T18:37:57;21.52;;;7.05;;
74959;SDS011;63518;49.572;1.106;2022-12-01T18:40:25;23.35;;;9.15;;
74959;SDS011;63518;49.572;1.106;2022-12-01T18:42:53;23.27;;;7.32;;
74959;SDS011;63518;49.572;1.106;2022-12-01T18:45:22;24.55;;;8.07;;
74959;SDS011;63518;49.572;1.106;2022-12-01T18:47:54;24.25;;;8.30;;